createdAt,value
2022-08-02T00:00:48.140Z,0.00
2022-08-02T00:01:47.151Z,0.00
2022-08-02T00:02:47.088Z,0.00
2022-08-02T00:03:47.068Z,0.00
2022-08-02T00:04:47.071Z,0.00
2022-08-02T00:05:53.495Z,0.00
2022-08-02T00:06:47.999Z,0.00
2022-08-02T00:07:46.982Z,0.00
2022-08-02T00:08:46.957Z,0.00
2022-08-02T00:09:46.969Z,0.00
2022-08-02T00:10:46.920Z,0.00
2022-08-02T00:11:46.896Z,0.00
2022-08-02T00:12:46.867Z,0.00
2022-08-02T00:13:46.849Z,0.00
2022-08-02T00:14:46.855Z,0.00
2022-08-02T00:15:46.806Z,0.00
2022-08-02T00:16:46.781Z,0.00
2022-08-02T00:17:47.354Z,0.00
2022-08-02T00:18:46.738Z,0.00
2022-08-02T00:19:46.749Z,0.00
2022-08-02T00:20:46.699Z,0.00
2022-08-02T00:21:46.674Z,0.00
2022-08-02T00:22:46.652Z,0.00
2022-08-02T00:24:27.629Z,0.00
2022-08-02T00:24:47.641Z,0.00
2022-08-02T00:25:54.974Z,0.00
2022-08-02T00:26:47.563Z,0.00
2022-08-02T00:27:46.546Z,0.00
2022-08-02T00:28:46.520Z,0.00
2022-08-02T00:29:52.530Z,0.00
2022-08-02T00:30:47.479Z,0.00
2022-08-02T00:31:46.457Z,0.00
2022-08-02T00:32:46.435Z,0.00
2022-08-02T00:34:27.545Z,0.00
2022-08-02T00:34:47.423Z,0.00
2022-08-02T00:35:46.371Z,0.00
2022-08-02T00:36:46.353Z,0.00
2022-08-02T00:37:46.328Z,0.00
2022-08-02T00:38:46.311Z,0.00
2022-08-02T00:39:46.310Z,0.00
2022-08-02T00:40:46.260Z,0.00
2022-08-02T00:41:46.240Z,0.00
2022-08-02T00:42:46.219Z,0.00
2022-08-02T00:43:46.198Z,0.00
2022-08-02T00:44:46.204Z,0.00
2022-08-02T00:46:03.364Z,0.00
2022-08-02T00:46:47.135Z,0.00
2022-08-02T00:47:46.113Z,0.00
2022-08-02T00:48:46.092Z,0.00
2022-08-02T00:49:46.105Z,0.00
2022-08-02T00:50:46.050Z,0.00
2022-08-02T00:51:46.027Z,0.00
2022-08-02T00:52:46.004Z,0.00
2022-08-02T00:53:45.982Z,0.00
2022-08-02T00:54:45.985Z,0.00
2022-08-02T00:55:45.937Z,0.00
2022-08-02T00:56:50.104Z,0.00
2022-08-02T00:57:46.896Z,0.00
2022-08-02T00:58:45.873Z,0.00
2022-08-02T00:59:45.881Z,0.00
2022-08-02T01:00:45.835Z,0.00
2022-08-02T01:01:55.873Z,0.00
2022-08-02T01:02:46.786Z,0.00
2022-08-02T01:03:45.762Z,0.00
2022-08-02T01:04:45.778Z,0.00
2022-08-02T01:06:10.051Z,0.00
2022-08-02T01:06:47.706Z,0.00
2022-08-02T01:07:45.681Z,0.00
2022-08-02T01:08:45.655Z,0.00
2022-08-02T01:09:45.675Z,0.00
2022-08-02T01:10:45.613Z,0.00
2022-08-02T01:11:45.593Z,0.00
2022-08-02T01:12:45.572Z,0.00
2022-08-02T01:13:45.548Z,0.00
2022-08-02T01:14:45.557Z,0.00
2022-08-02T01:15:45.504Z,0.00
2022-08-02T01:16:45.481Z,0.00
2022-08-02T01:17:45.457Z,0.00
2022-08-02T01:18:45.438Z,0.00
2022-08-02T01:19:45.442Z,0.00
2022-08-02T01:20:45.402Z,0.00
2022-08-02T01:21:45.367Z,0.00
2022-08-02T01:23:01.002Z,0.00
2022-08-02T01:23:47.326Z,0.00
2022-08-02T01:24:45.328Z,0.00
2022-08-02T01:25:45.280Z,0.00
2022-08-02T01:26:45.264Z,0.00
2022-08-02T01:27:45.236Z,0.00
2022-08-02T01:28:45.212Z,0.00
2022-08-02T01:29:45.216Z,0.00
2022-08-02T01:30:45.173Z,0.00
2022-08-02T01:31:45.150Z,0.00
2022-08-02T01:32:45.126Z,0.00
2022-08-02T01:33:45.104Z,0.00
2022-08-02T01:34:45.108Z,0.00
2022-08-02T01:35:50.473Z,0.00
2022-08-02T01:36:46.036Z,0.00
2022-08-02T01:37:45.015Z,0.00
2022-08-02T01:38:44.991Z,0.00
2022-08-02T01:39:44.998Z,0.00
2022-08-02T01:40:44.948Z,0.00
2022-08-02T01:41:44.925Z,0.00
2022-08-02T01:42:44.901Z,0.00
2022-08-02T01:43:44.890Z,0.00
2022-08-02T01:44:44.886Z,0.00
2022-08-02T01:45:44.835Z,0.00
2022-08-02T01:46:44.810Z,0.00
2022-08-02T01:47:44.793Z,0.00
2022-08-02T01:48:44.792Z,0.00
2022-08-02T01:49:44.843Z,0.00
2022-08-02T01:50:44.756Z,0.00
2022-08-02T01:51:44.700Z,0.00
2022-08-02T01:52:53.020Z,0.00
2022-08-02T01:53:45.656Z,0.00
2022-08-02T01:54:44.638Z,0.00
2022-08-02T01:55:58.577Z,0.00
2022-08-02T01:56:45.589Z,0.00
2022-08-02T01:57:44.572Z,0.00
2022-08-02T01:58:44.554Z,0.00
2022-08-02T01:59:44.560Z,0.00
2022-08-02T02:00:44.526Z,0.00
2022-08-02T02:01:44.515Z,0.00
2022-08-02T02:02:44.460Z,0.00
2022-08-02T02:03:44.438Z,0.00
2022-08-02T02:04:44.446Z,0.00
2022-08-02T02:05:44.418Z,0.00
2022-08-02T02:06:44.368Z,0.00
2022-08-02T02:07:44.346Z,0.00
2022-08-02T02:08:44.335Z,0.00
2022-08-02T02:09:50.515Z,0.00
2022-08-02T02:10:45.280Z,0.00
2022-08-02T02:12:14.112Z,0.00
2022-08-02T02:12:45.238Z,0.00
2022-08-02T02:13:44.222Z,0.00
2022-08-02T02:14:51.476Z,0.00
2022-08-02T02:15:45.201Z,0.00
2022-08-02T02:16:44.152Z,0.00
2022-08-02T02:17:52.680Z,0.00
2022-08-02T02:18:45.108Z,0.00
2022-08-02T02:19:44.084Z,0.00
2022-08-02T02:20:44.089Z,0.00
2022-08-02T02:21:44.041Z,0.00
2022-08-02T02:22:44.019Z,0.00
2022-08-02T02:23:43.996Z,0.00
2022-08-02T02:24:43.976Z,0.00
2022-08-02T02:25:46.649Z,0.00
2022-08-02T02:26:51.969Z,0.00
2022-08-02T02:27:44.911Z,0.00
2022-08-02T02:28:43.891Z,0.00
2022-08-02T02:29:43.868Z,0.00
2022-08-02T02:30:43.871Z,0.00
2022-08-02T02:31:43.822Z,0.00
2022-08-02T02:32:43.798Z,0.00
2022-08-02T02:33:43.775Z,0.00
2022-08-02T02:34:43.758Z,0.00
2022-08-02T02:35:43.760Z,0.00
2022-08-02T02:36:43.715Z,0.00
2022-08-02T02:37:43.690Z,0.00
2022-08-02T02:38:43.668Z,0.00
2022-08-02T02:39:43.653Z,0.00
2022-08-02T02:40:43.652Z,0.00
2022-08-02T02:41:43.615Z,0.00
2022-08-02T02:42:43.579Z,0.00
2022-08-02T02:43:44.561Z,0.00
2022-08-02T02:44:43.541Z,0.00
2022-08-02T02:45:43.541Z,0.00
2022-08-02T02:46:43.490Z,0.00
2022-08-02T02:47:43.473Z,0.00
2022-08-02T02:48:43.450Z,0.00
2022-08-02T02:49:43.427Z,0.00
2022-08-02T02:50:43.431Z,0.00
2022-08-02T02:51:43.384Z,0.00
2022-08-02T02:52:43.362Z,0.00
2022-08-02T02:54:32.813Z,0.00
2022-08-02T02:54:44.320Z,0.00
2022-08-02T02:56:01.937Z,0.00
2022-08-02T02:56:44.281Z,0.00
2022-08-02T02:57:43.261Z,0.00
2022-08-02T02:58:43.230Z,0.00
2022-08-02T02:59:49.387Z,0.00
2022-08-02T03:00:44.313Z,0.00
2022-08-02T03:01:57.198Z,0.00
2022-08-02T03:02:44.157Z,0.00
2022-08-02T03:03:43.131Z,0.00
2022-08-02T03:04:56.030Z,0.00
2022-08-02T03:05:44.115Z,0.00
2022-08-02T03:06:43.071Z,0.00
2022-08-02T03:07:43.050Z,0.00
2022-08-02T03:08:43.027Z,0.00
2022-08-02T03:09:43.005Z,0.00
2022-08-02T03:10:43.011Z,0.00
2022-08-02T03:11:42.967Z,0.00
2022-08-02T03:12:42.941Z,0.00
2022-08-02T03:13:42.921Z,0.00
2022-08-02T03:14:42.899Z,0.00
2022-08-02T03:15:42.908Z,0.00
2022-08-02T03:16:42.856Z,0.00
2022-08-02T03:17:42.862Z,0.00
2022-08-02T03:18:42.815Z,0.00
2022-08-02T03:19:42.795Z,0.00
2022-08-02T03:20:42.798Z,0.00
2022-08-02T03:21:42.751Z,0.00
2022-08-02T03:22:42.730Z,0.00
2022-08-02T03:23:42.706Z,0.00
2022-08-02T03:24:42.686Z,0.00
2022-08-02T03:25:42.694Z,0.00
2022-08-02T03:26:42.646Z,0.00
2022-08-02T03:27:42.618Z,0.00
2022-08-02T03:28:42.600Z,5.62
2022-08-02T03:29:42.582Z,5.62
2022-08-02T03:30:42.590Z,5.62
2022-08-02T03:31:42.541Z,5.62
2022-08-02T03:32:42.524Z,5.62
2022-08-02T03:33:42.498Z,5.62
2022-08-02T03:34:42.479Z,11.25
2022-08-02T03:35:42.489Z,11.25
2022-08-02T03:36:42.463Z,11.25
2022-08-02T03:37:42.423Z,11.25
2022-08-02T03:38:42.398Z,11.25
2022-08-02T03:39:49.668Z,11.25
2022-08-02T03:40:43.385Z,11.25
2022-08-02T03:41:42.336Z,11.25
2022-08-02T03:42:42.314Z,16.88
2022-08-02T03:43:42.297Z,16.88
2022-08-02T03:44:42.276Z,16.88
2022-08-02T03:45:42.279Z,16.88
2022-08-02T03:46:42.229Z,22.50
2022-08-02T03:47:42.208Z,22.50
2022-08-02T03:48:42.187Z,22.50
2022-08-02T03:49:42.170Z,22.50
2022-08-02T03:50:42.179Z,28.12
2022-08-02T03:51:42.130Z,28.12
2022-08-02T03:52:42.110Z,28.12
2022-08-02T03:53:42.086Z,33.75
2022-08-02T03:54:45.513Z,39.38
2022-08-02T03:55:42.070Z,45.00
2022-08-02T03:56:42.021Z,50.62
2022-08-02T03:57:42.000Z,56.25
2022-08-02T03:58:45.677Z,67.50
2022-08-02T03:59:42.971Z,73.12
2022-08-02T04:00:41.976Z,90.00
2022-08-02T04:01:41.919Z,101.25
2022-08-02T04:02:41.894Z,112.50
2022-08-02T04:03:41.873Z,129.38
2022-08-02T04:04:41.849Z,157.50
2022-08-02T04:06:03.774Z,168.75
2022-08-02T04:06:42.818Z,185.62
2022-08-02T04:08:34.364Z,191.25
2022-08-02T04:08:42.770Z,185.62
2022-08-02T04:09:41.746Z,208.12
2022-08-02T04:10:41.756Z,225.00
2022-08-02T04:11:41.703Z,208.12
2022-08-02T04:12:41.683Z,208.12
2022-08-02T04:13:41.659Z,196.88
2022-08-02T04:14:41.641Z,174.38
2022-08-02T04:15:41.643Z,185.62
2022-08-02T04:16:41.592Z,225.00
2022-08-02T04:17:41.573Z,258.75
2022-08-02T04:18:41.548Z,298.12
2022-08-02T04:19:41.523Z,298.12
2022-08-02T04:20:41.530Z,258.75
2022-08-02T04:21:51.456Z,202.50
2022-08-02T04:22:42.454Z,151.88
2022-08-02T04:23:41.435Z,118.12
2022-08-02T04:24:41.411Z,106.88
2022-08-02T04:25:41.448Z,106.88
2022-08-02T04:26:41.369Z,112.50
2022-08-02T04:27:50.404Z,118.12
2022-08-02T04:28:42.326Z,123.75
2022-08-02T04:29:46.510Z,135.00
2022-08-02T04:30:43.309Z,163.12
2022-08-02T04:31:41.258Z,230.62
2022-08-02T04:32:41.241Z,331.88
2022-08-02T04:33:41.215Z,354.38
2022-08-02T04:34:41.198Z,405.00
2022-08-02T04:35:41.200Z,545.62
2022-08-02T04:36:41.149Z,478.12
2022-08-02T04:38:09.414Z,354.38
2022-08-02T04:38:42.108Z,326.25
2022-08-02T04:39:41.089Z,337.50
2022-08-02T04:40:41.088Z,292.50
2022-08-02T04:41:43.904Z,275.62
2022-08-02T04:42:41.025Z,286.88
2022-08-02T04:43:41.005Z,309.38
2022-08-02T04:44:40.984Z,421.88
2022-08-02T04:45:40.988Z,635.62
2022-08-02T04:46:40.941Z,810.00
2022-08-02T04:48:03.411Z,1136.25
2022-08-02T04:48:42.898Z,1327.50
2022-08-02T04:49:40.965Z,1361.25
2022-08-02T04:50:40.875Z,1411.88
2022-08-02T04:51:40.831Z,1586.25
2022-08-02T04:52:45.697Z,1552.50
2022-08-02T04:53:42.793Z,1580.62
2022-08-02T04:54:40.775Z,1620.00
2022-08-02T04:55:40.783Z,1608.75
2022-08-02T04:56:40.765Z,1569.38
2022-08-02T04:57:40.717Z,1704.38
2022-08-02T04:58:41.694Z,1850.62
2022-08-02T04:59:41.681Z,1828.12
2022-08-02T05:00:40.735Z,1822.50
2022-08-02T05:01:40.670Z,1833.75
2022-08-02T05:02:40.615Z,1901.25
2022-08-02T05:03:41.605Z,1957.50
2022-08-02T05:04:40.588Z,1923.75
2022-08-02T05:05:40.568Z,1991.25
2022-08-02T05:06:40.576Z,2013.75
2022-08-02T05:07:40.529Z,2086.88
2022-08-02T05:08:40.510Z,2199.38
2022-08-02T05:09:40.492Z,2143.12
2022-08-02T05:10:40.470Z,2086.88
2022-08-02T05:11:40.482Z,1552.50
2022-08-02T05:12:40.439Z,1783.12
2022-08-02T05:13:58.452Z,1980.00
2022-08-02T05:14:41.400Z,1411.88
2022-08-02T05:15:40.387Z,1631.25
2022-08-02T05:16:40.395Z,1490.62
2022-08-02T05:17:47.647Z,1434.38
2022-08-02T05:18:41.330Z,1395.00
2022-08-02T05:19:40.310Z,1456.88
2022-08-02T05:20:40.295Z,1749.38
2022-08-02T05:21:40.306Z,1411.88
2022-08-02T05:22:40.262Z,1018.12
2022-08-02T05:23:40.245Z,680.62
2022-08-02T05:24:40.248Z,900.00
2022-08-02T05:25:40.210Z,793.12
2022-08-02T05:26:40.214Z,759.38
2022-08-02T05:27:40.171Z,849.38
2022-08-02T05:28:40.157Z,607.50
2022-08-02T05:29:40.137Z,461.25
2022-08-02T05:30:41.116Z,478.12
2022-08-02T05:31:40.131Z,416.25
2022-08-02T05:32:40.085Z,405.00
2022-08-02T05:33:40.099Z,382.50
2022-08-02T05:34:40.048Z,410.62
2022-08-02T05:35:40.031Z,596.25
2022-08-02T05:36:42.095Z,517.50
2022-08-02T05:37:39.996Z,551.25
2022-08-02T05:38:39.972Z,579.38
2022-08-02T05:39:55.760Z,562.50
2022-08-02T05:40:55.087Z,545.62
2022-08-02T05:41:40.944Z,551.25
2022-08-02T05:42:40.913Z,590.62
2022-08-02T05:43:39.887Z,635.62
2022-08-02T05:44:39.891Z,680.62
2022-08-02T05:45:39.845Z,697.50
2022-08-02T05:46:39.858Z,714.38
2022-08-02T05:47:39.812Z,736.88
2022-08-02T05:48:39.798Z,2250.00
2022-08-02T05:49:39.835Z,2221.88
2022-08-02T05:50:39.773Z,2176.88
2022-08-02T05:51:39.778Z,2019.38
2022-08-02T05:52:39.723Z,2103.75
2022-08-02T05:53:39.711Z,900.00
2022-08-02T05:54:39.751Z,1642.50
2022-08-02T05:55:39.669Z,2643.75
2022-08-02T05:56:39.676Z,3043.12
2022-08-02T05:57:41.900Z,3150.00
2022-08-02T05:58:39.611Z,2801.25
2022-08-02T05:59:39.594Z,1170.00
2022-08-02T06:00:39.578Z,984.38
2022-08-02T06:01:39.652Z,2975.62
2022-08-02T06:02:39.540Z,3105.00
2022-08-02T06:03:39.529Z,2784.38
2022-08-02T06:04:39.510Z,3093.75
2022-08-02T06:05:39.496Z,2587.50
2022-08-02T06:06:39.497Z,2891.25
2022-08-02T06:07:39.455Z,3183.75
2022-08-02T06:08:39.435Z,3161.25
2022-08-02T06:09:39.421Z,3206.25
2022-08-02T06:10:39.407Z,3358.12
2022-08-02T06:11:39.413Z,3543.75
2022-08-02T06:12:39.369Z,1530.00
2022-08-02T06:13:39.353Z,2413.12
2022-08-02T06:14:39.334Z,871.88
2022-08-02T06:15:52.732Z,1029.38
2022-08-02T06:16:41.945Z,1563.75
2022-08-02T06:17:41.690Z,950.62
2022-08-02T06:18:41.270Z,871.88
2022-08-02T06:19:51.069Z,871.88
2022-08-02T06:20:40.238Z,922.50
2022-08-02T06:22:32.745Z,1783.12
2022-08-02T06:22:40.205Z,3645.00
2022-08-02T06:23:39.192Z,2806.88
2022-08-02T06:24:40.169Z,3465.00
2022-08-02T06:25:50.163Z,3476.25
2022-08-02T06:26:40.160Z,3369.38
2022-08-02T06:27:39.115Z,3566.25
2022-08-02T06:28:39.097Z,3971.25
2022-08-02T06:29:39.198Z,3847.50
2022-08-02T06:30:40.063Z,3498.75
2022-08-02T06:31:39.072Z,3628.12
2022-08-02T06:32:39.030Z,3836.25
2022-08-02T06:33:39.013Z,4173.75
2022-08-02T06:34:39.002Z,4173.75
2022-08-02T06:35:38.976Z,3600.00
2022-08-02T06:36:38.987Z,3307.50
2022-08-02T06:37:38.934Z,4005.00
2022-08-02T06:38:39.928Z,4314.38
2022-08-02T06:39:38.909Z,4033.12
2022-08-02T06:40:38.890Z,3695.62
2022-08-02T06:41:38.902Z,3352.50
2022-08-02T06:42:38.859Z,3369.38
2022-08-02T06:43:39.230Z,3751.88
2022-08-02T06:44:48.045Z,3650.62
2022-08-02T06:45:40.808Z,3690.00
2022-08-02T06:47:09.370Z,3943.12
2022-08-02T06:47:39.781Z,4021.88
2022-08-02T06:48:38.763Z,3555.00
2022-08-02T06:49:51.617Z,3673.12
2022-08-02T06:50:39.748Z,3746.25
2022-08-02T06:51:38.748Z,2351.25
2022-08-02T06:52:38.697Z,3616.88
2022-08-02T06:53:38.685Z,3408.75
2022-08-02T06:54:38.666Z,3526.88
2022-08-02T06:55:43.504Z,3757.50
2022-08-02T06:56:39.660Z,3825.00
2022-08-02T06:57:38.621Z,4050.00
2022-08-02T06:58:38.599Z,3836.25
2022-08-02T06:59:38.583Z,3870.00
2022-08-02T07:00:38.574Z,3532.50
2022-08-02T07:01:39.304Z,2604.38
2022-08-02T07:02:38.535Z,3577.50
2022-08-02T07:03:38.518Z,1445.62
2022-08-02T07:04:38.502Z,3982.50
2022-08-02T07:05:38.489Z,3892.50
2022-08-02T07:06:38.495Z,3178.12
2022-08-02T07:07:38.454Z,3740.62
2022-08-02T07:08:38.451Z,4196.25
2022-08-02T07:09:38.424Z,4095.00
2022-08-02T07:10:38.406Z,3847.50
2022-08-02T07:11:38.418Z,3903.75
2022-08-02T07:12:38.374Z,4134.38
2022-08-02T07:13:39.997Z,4179.38
2022-08-02T07:14:39.337Z,3785.62
2022-08-02T07:15:38.324Z,3442.50
2022-08-02T07:16:38.333Z,3206.25
2022-08-02T07:17:38.290Z,3622.50
2022-08-02T07:18:38.281Z,3785.62
2022-08-02T07:19:38.446Z,3583.12
2022-08-02T07:20:38.244Z,3948.75
2022-08-02T07:21:56.319Z,3943.12
2022-08-02T07:22:39.211Z,3656.25
2022-08-02T07:23:38.196Z,3498.75
2022-08-02T07:24:38.184Z,3487.50
2022-08-02T07:26:02.655Z,3555.00
2022-08-02T07:27:01.513Z,3678.75
2022-08-02T07:27:40.136Z,4162.50
2022-08-02T07:28:38.124Z,3903.75
2022-08-02T07:29:46.644Z,4128.75
2022-08-02T07:30:39.089Z,4320.00
2022-08-02T07:31:38.100Z,4145.62
2022-08-02T07:32:38.067Z,4033.12
2022-08-02T07:33:40.202Z,3723.75
2022-08-02T07:34:38.025Z,4190.62
2022-08-02T07:35:38.015Z,4123.12
2022-08-02T07:36:38.023Z,4061.25
2022-08-02T07:37:53.472Z,3785.62
2022-08-02T07:38:38.965Z,3898.12
2022-08-02T07:39:37.960Z,4173.75
2022-08-02T07:40:38.940Z,3768.75
2022-08-02T07:41:37.945Z,1192.50
2022-08-02T07:42:38.900Z,3718.12
2022-08-02T07:43:37.898Z,3712.50
2022-08-02T07:44:37.880Z,3375.00
2022-08-02T07:45:55.639Z,3521.25
2022-08-02T07:46:38.871Z,3740.62
2022-08-02T07:47:38.841Z,3886.88
2022-08-02T07:48:37.809Z,3746.25
2022-08-02T07:49:37.859Z,3588.75
2022-08-02T07:50:37.778Z,1074.38
2022-08-02T07:51:37.790Z,1001.25
2022-08-02T07:52:37.748Z,1333.12
2022-08-02T07:53:50.591Z,1012.50
2022-08-02T07:54:38.713Z,933.75
2022-08-02T07:55:40.485Z,933.75
2022-08-02T07:56:37.715Z,945.00
2022-08-02T07:57:39.381Z,945.00
2022-08-02T07:58:37.651Z,1051.88
2022-08-02T07:59:37.632Z,967.50
2022-08-02T08:00:37.620Z,1029.38
2022-08-02T08:01:37.673Z,3768.75
2022-08-02T08:02:37.584Z,1389.38
2022-08-02T08:03:37.568Z,4095.00
2022-08-02T08:04:37.549Z,1119.38
2022-08-02T08:05:37.534Z,1108.12
2022-08-02T08:06:37.513Z,1299.38
2022-08-02T08:07:37.528Z,933.75
2022-08-02T08:08:37.480Z,990.00
2022-08-02T08:09:37.461Z,916.88
2022-08-02T08:10:37.442Z,1760.62
2022-08-02T08:11:37.425Z,1018.12
2022-08-02T08:12:37.436Z,1119.38
2022-08-02T08:13:37.396Z,973.12
2022-08-02T08:14:37.386Z,3566.25
2022-08-02T08:15:37.367Z,3566.25
2022-08-02T08:16:37.348Z,3701.25
2022-08-02T08:17:37.356Z,3813.75
2022-08-02T08:18:37.313Z,3735.00
2022-08-02T08:19:50.870Z,2328.75
2022-08-02T08:20:38.274Z,2317.50
2022-08-02T08:21:37.254Z,3892.50
2022-08-02T08:22:37.269Z,3751.88
2022-08-02T08:23:37.228Z,3667.50
2022-08-02T08:24:37.207Z,3268.12
2022-08-02T08:25:39.847Z,950.62
2022-08-02T08:26:37.173Z,2323.12
2022-08-02T08:27:37.183Z,3886.88
2022-08-02T08:28:37.139Z,3723.75
2022-08-02T08:29:37.127Z,3476.25
2022-08-02T08:30:37.105Z,3476.25
2022-08-02T08:31:37.103Z,3510.00
2022-08-02T08:32:37.101Z,3555.00
2022-08-02T08:33:37.055Z,3616.88
2022-08-02T08:34:37.038Z,3605.62
2022-08-02T08:35:37.026Z,3639.38
2022-08-02T08:36:37.002Z,3701.25
2022-08-02T08:37:37.740Z,3768.75
2022-08-02T08:38:36.979Z,3611.25
2022-08-02T08:39:36.950Z,3695.62
2022-08-02T08:40:37.933Z,3982.50
2022-08-02T08:41:36.922Z,3673.12
2022-08-02T08:42:36.930Z,3313.12
2022-08-02T08:43:36.891Z,3391.88
2022-08-02T08:44:36.873Z,3476.25
2022-08-02T08:45:36.860Z,3105.00
2022-08-02T08:46:36.838Z,3138.75
2022-08-02T08:47:36.847Z,3307.50
2022-08-02T08:48:36.803Z,3245.62
2022-08-02T08:49:36.782Z,3352.50
2022-08-02T08:50:36.780Z,3408.75
2022-08-02T08:51:36.751Z,3324.38
2022-08-02T08:52:36.763Z,3088.12
2022-08-02T08:53:37.103Z,3498.75
2022-08-02T08:54:36.700Z,3605.62
2022-08-02T08:55:36.686Z,3195.00
2022-08-02T08:56:36.669Z,3656.25
2022-08-02T08:57:36.677Z,3791.25
2022-08-02T08:58:36.635Z,3549.38
2022-08-02T08:59:39.220Z,3144.38
2022-08-02T09:00:36.637Z,3279.38
2022-08-02T09:01:49.717Z,3307.50
2022-08-02T09:02:37.596Z,2840.62
2022-08-02T09:03:36.564Z,2418.75
2022-08-02T09:04:36.542Z,2615.62
2022-08-02T09:05:36.522Z,2660.62
2022-08-02T09:06:36.507Z,2711.25
2022-08-02T09:07:36.516Z,2553.75
2022-08-02T09:08:36.471Z,2700.00
2022-08-02T09:09:36.457Z,2936.25
2022-08-02T09:10:36.437Z,2857.50
2022-08-02T09:11:36.421Z,2863.12
2022-08-02T09:12:36.431Z,2671.88
2022-08-02T09:13:45.208Z,2745.00
2022-08-02T09:14:37.365Z,2806.88
2022-08-02T09:15:36.351Z,2851.88
2022-08-02T09:16:36.336Z,2716.88
2022-08-02T09:17:36.339Z,2919.38
2022-08-02T09:18:36.326Z,2739.38
2022-08-02T09:19:36.284Z,2520.00
2022-08-02T09:20:36.262Z,1620.00
2022-08-02T09:21:36.245Z,1147.50
2022-08-02T09:22:36.255Z,860.62
2022-08-02T09:23:36.212Z,871.88
2022-08-02T09:24:36.203Z,843.75
2022-08-02T09:25:36.190Z,815.62
2022-08-02T09:26:36.166Z,798.75
2022-08-02T09:27:36.184Z,770.62
2022-08-02T09:28:36.128Z,770.62
2022-08-02T09:29:48.600Z,753.75
2022-08-02T09:30:38.095Z,748.12
2022-08-02T09:31:36.082Z,742.50
2022-08-02T09:32:36.097Z,731.25
2022-08-02T09:33:36.044Z,714.38
2022-08-02T09:34:36.055Z,714.38
2022-08-02T09:36:06.161Z,708.75
2022-08-02T09:36:37.005Z,708.75
2022-08-02T09:37:36.006Z,691.88
2022-08-02T09:38:35.960Z,686.25
2022-08-02T09:39:35.941Z,680.62
2022-08-02T09:40:36.922Z,675.00
2022-08-02T09:41:35.903Z,663.75
2022-08-02T09:42:35.911Z,658.12
2022-08-02T09:43:35.872Z,646.88
2022-08-02T09:44:35.854Z,635.62
2022-08-02T09:45:35.834Z,618.75
2022-08-02T09:46:35.821Z,613.12
2022-08-02T09:47:37.301Z,618.75
2022-08-02T09:48:35.787Z,624.38
2022-08-02T09:49:35.779Z,618.75
2022-08-02T09:50:35.751Z,613.12
2022-08-02T09:51:35.735Z,607.50
2022-08-02T09:52:36.833Z,601.88
2022-08-02T09:53:36.692Z,601.88
2022-08-02T09:54:35.683Z,601.88
2022-08-02T09:55:35.661Z,596.25
2022-08-02T09:56:36.063Z,590.62
2022-08-02T09:57:35.653Z,590.62
2022-08-02T09:58:35.605Z,590.62
2022-08-02T09:59:35.614Z,585.00
2022-08-02T10:00:51.751Z,579.38
2022-08-02T10:01:39.008Z,573.75
2022-08-02T10:02:35.631Z,579.38
2022-08-02T10:03:37.275Z,585.00
2022-08-02T10:04:52.099Z,579.38
2022-08-02T10:05:42.797Z,579.38
2022-08-02T10:06:36.461Z,573.75
2022-08-02T10:07:35.474Z,568.12
2022-08-02T10:08:35.428Z,568.12
2022-08-02T10:09:37.969Z,556.88
2022-08-02T10:10:35.390Z,523.12
2022-08-02T10:11:35.380Z,489.38
2022-08-02T10:12:35.380Z,528.75
2022-08-02T10:13:35.364Z,551.25
2022-08-02T10:14:35.319Z,528.75
2022-08-02T10:15:35.298Z,528.75
2022-08-02T10:16:35.283Z,540.00
2022-08-02T10:17:35.441Z,534.38
2022-08-02T10:18:39.418Z,556.88
2022-08-02T10:20:00.943Z,545.62
2022-08-02T10:20:36.207Z,562.50
2022-08-02T10:21:35.193Z,568.12
2022-08-02T10:22:35.203Z,585.00
2022-08-02T10:23:35.154Z,585.00
2022-08-02T10:24:35.138Z,590.62
2022-08-02T10:25:35.119Z,601.88
2022-08-02T10:26:35.097Z,601.88
2022-08-02T10:27:55.532Z,601.88
2022-08-02T10:28:37.064Z,590.62
2022-08-02T10:29:53.944Z,590.62
2022-08-02T10:30:36.028Z,579.38
2022-08-02T10:31:35.026Z,573.75
2022-08-02T10:32:35.024Z,568.12
2022-08-02T10:33:34.970Z,562.50
2022-08-02T10:34:34.953Z,562.50
2022-08-02T10:35:34.954Z,556.88
2022-08-02T10:36:35.922Z,556.88
2022-08-02T10:37:34.898Z,545.62
2022-08-02T10:38:34.884Z,545.62
2022-08-02T10:39:34.865Z,540.00
2022-08-02T10:40:34.873Z,545.62
2022-08-02T10:41:34.827Z,545.62
2022-08-02T10:42:34.845Z,545.62
2022-08-02T10:43:34.793Z,545.62
2022-08-02T10:44:34.775Z,534.38
2022-08-02T10:45:34.756Z,534.38
2022-08-02T10:46:34.734Z,551.25
2022-08-02T10:47:34.744Z,556.88
2022-08-02T10:48:34.698Z,556.88
2022-08-02T10:49:39.838Z,551.25
2022-08-02T10:50:36.668Z,551.25
2022-08-02T10:51:34.705Z,562.50
2022-08-02T10:52:35.665Z,568.12
2022-08-02T10:53:34.611Z,562.50
2022-08-02T10:54:34.592Z,551.25
2022-08-02T10:55:34.602Z,551.25
2022-08-02T10:56:34.558Z,551.25
2022-08-02T10:57:34.572Z,551.25
2022-08-02T10:58:34.527Z,545.62
2022-08-02T10:59:34.505Z,545.62
2022-08-02T11:00:34.554Z,540.00
2022-08-02T11:01:39.003Z,534.38
2022-08-02T11:02:35.447Z,517.50
2022-08-02T11:03:39.347Z,500.62
2022-08-02T11:04:35.420Z,528.75
2022-08-02T11:05:43.342Z,528.75
2022-08-02T11:06:35.405Z,528.75
2022-08-02T11:07:34.365Z,534.38
2022-08-02T11:08:34.369Z,528.75
2022-08-02T11:09:34.326Z,528.75
2022-08-02T11:10:34.310Z,523.12
2022-08-02T11:11:53.526Z,528.75
2022-08-02T11:12:35.273Z,523.12
2022-08-02T11:13:34.280Z,528.75
2022-08-02T11:14:34.234Z,528.75
2022-08-02T11:15:34.224Z,523.12
2022-08-02T11:16:34.202Z,523.12
2022-08-02T11:17:38.169Z,523.12
2022-08-02T11:18:35.188Z,517.50
2022-08-02T11:19:34.150Z,511.88
2022-08-02T11:20:34.132Z,511.88
2022-08-02T11:21:34.114Z,506.25
2022-08-02T11:22:34.096Z,506.25
2022-08-02T11:23:44.698Z,495.00
2022-08-02T11:24:35.057Z,500.62
2022-08-02T11:26:01.006Z,500.62
2022-08-02T11:26:36.025Z,506.25
2022-08-02T11:27:34.001Z,444.38
2022-08-02T11:28:34.011Z,489.38
2022-08-02T11:29:38.647Z,495.00
2022-08-02T11:30:34.951Z,489.38
2022-08-02T11:31:33.933Z,500.62
2022-08-02T11:32:33.916Z,506.25
2022-08-02T11:33:33.929Z,517.50
2022-08-02T11:34:37.574Z,528.75
2022-08-02T11:35:33.859Z,511.88
2022-08-02T11:36:33.841Z,511.88
2022-08-02T11:37:33.826Z,506.25
2022-08-02T11:38:33.830Z,506.25
2022-08-02T11:39:33.789Z,511.88
2022-08-02T11:40:35.542Z,511.88
2022-08-02T11:41:46.667Z,511.88
2022-08-02T11:42:34.734Z,455.62
2022-08-02T11:43:33.744Z,495.00
2022-08-02T11:44:33.700Z,500.62
2022-08-02T11:45:33.680Z,489.38
2022-08-02T11:46:33.668Z,478.12
2022-08-02T11:47:33.647Z,506.25
2022-08-02T11:48:33.652Z,511.88
2022-08-02T11:49:33.649Z,517.50
2022-08-02T11:50:33.585Z,500.62
2022-08-02T11:51:33.572Z,500.62
2022-08-02T11:52:33.557Z,500.62
2022-08-02T11:53:33.562Z,495.00
2022-08-02T11:54:35.450Z,495.00
2022-08-02T11:55:33.498Z,489.38
2022-08-02T11:56:33.475Z,483.75
2022-08-02T11:58:03.020Z,483.75
2022-08-02T11:58:34.465Z,478.12
2022-08-02T11:59:33.422Z,478.12
2022-08-02T12:00:33.397Z,483.75
2022-08-02T12:01:36.759Z,489.38
2022-08-02T12:02:34.366Z,483.75
2022-08-02T12:03:33.424Z,489.38
2022-08-02T12:04:33.335Z,483.75
2022-08-02T12:06:35.305Z,478.12
2022-08-02T12:07:35.236Z,483.75
2022-08-02T12:08:33.286Z,483.75
2022-08-02T12:09:34.393Z,478.12
2022-08-02T12:10:33.226Z,478.12
2022-08-02T12:11:38.832Z,483.75
2022-08-02T12:12:34.190Z,478.12
2022-08-02T12:13:33.199Z,472.50
2022-08-02T12:14:33.155Z,478.12
2022-08-02T12:15:33.137Z,478.12
2022-08-02T12:16:33.118Z,472.50
2022-08-02T12:17:33.098Z,466.88
2022-08-02T12:18:33.112Z,466.88
2022-08-02T12:19:33.064Z,478.12
2022-08-02T12:20:33.052Z,483.75
2022-08-02T12:21:33.030Z,483.75
2022-08-02T12:22:33.016Z,483.75
2022-08-02T12:23:33.023Z,478.12
2022-08-02T12:24:32.979Z,472.50
2022-08-02T12:25:33.330Z,478.12
2022-08-02T12:26:32.943Z,489.38
2022-08-02T12:27:32.928Z,495.00
2022-08-02T12:28:32.938Z,483.75
2022-08-02T12:29:58.885Z,489.38
2022-08-02T12:30:33.871Z,483.75
2022-08-02T12:31:32.853Z,472.50
2022-08-02T12:32:32.834Z,478.12
2022-08-02T12:33:36.509Z,483.75
2022-08-02T12:34:34.797Z,472.50
2022-08-02T12:35:32.779Z,478.12
2022-08-02T12:36:32.767Z,478.12